createdAt,value
2023-02-22T00:01:35.654Z,11.77
2023-02-22T00:04:04.004Z,11.57
2023-02-22T00:06:31.103Z,11.45
2023-02-22T00:08:58.753Z,12.10
2023-02-22T00:11:26.325Z,12.05
2023-02-22T00:13:57.019Z,11.35
2023-02-22T00:16:24.767Z,10.55
2023-02-22T00:18:51.999Z,10.93
2023-02-22T00:21:19.479Z,10.50
2023-02-22T00:23:47.509Z,10.35
2023-02-22T00:26:18.079Z,10.20
2023-02-22T00:28:50.042Z,9.43
2023-02-22T00:31:17.878Z,10.15
2023-02-22T00:33:45.563Z,10.70
2023-02-22T00:36:13.554Z,9.57
2023-02-22T00:38:41.637Z,10.10
2023-02-22T00:41:08.981Z,10.55
2023-02-22T00:43:36.117Z,9.43
2023-02-22T00:46:03.463Z,9.23
2023-02-22T00:48:30.566Z,9.73
2023-02-22T00:50:57.714Z,9.00
2023-02-22T00:53:25.564Z,10.10
2023-02-22T00:55:53.072Z,9.23
2023-02-22T00:58:20.927Z,9.57
2023-02-22T01:00:48.619Z,9.55
2023-02-22T01:03:17.194Z,9.35
2023-02-22T01:05:44.607Z,9.20
2023-02-22T01:08:13.340Z,9.50
2023-02-22T01:10:41.007Z,9.25
2023-02-22T01:13:09.478Z,8.75
2023-02-22T01:15:37.920Z,8.15
2023-02-22T01:18:05.472Z,8.70
2023-02-22T01:20:33.081Z,9.40
2023-02-22T01:23:01.018Z,9.50
2023-02-22T01:25:30.815Z,8.90
2023-02-22T01:27:59.011Z,9.98
2023-02-22T01:30:27.737Z,8.65
2023-02-22T01:32:55.352Z,9.98
2023-02-22T01:35:25.184Z,9.23
2023-02-22T01:37:52.371Z,9.07
2023-02-22T01:40:24.680Z,8.80
2023-02-22T01:42:53.392Z,8.93
2023-02-22T01:45:47.068Z,8.88
2023-02-22T01:48:20.999Z,9.50
2023-02-22T01:50:53.985Z,8.05
2023-02-22T01:53:23.051Z,8.80
2023-02-22T01:55:50.413Z,8.43
2023-02-22T01:58:21.747Z,9.15
2023-02-22T02:00:48.933Z,8.25
2023-02-22T02:03:21.833Z,9.15
2023-02-22T02:05:50.126Z,8.90
2023-02-22T02:08:32.133Z,8.93
2023-02-22T02:11:00.298Z,10.07
2023-02-22T02:13:28.028Z,9.48
2023-02-22T02:15:56.309Z,8.73
2023-02-22T02:18:24.712Z,9.05
2023-02-22T02:20:57.243Z,9.23
2023-02-22T02:23:49.449Z,9.30
2023-02-22T02:26:24.720Z,9.88
2023-02-22T02:31:18.604Z,9.35
2023-02-22T02:34:05.847Z,9.45
2023-02-22T02:36:44.402Z,9.75
2023-02-22T02:39:20.824Z,10.00
2023-02-22T02:41:50.647Z,10.30
2023-02-22T02:44:28.228Z,9.52
2023-02-22T02:47:08.934Z,10.07
2023-02-22T02:49:45.217Z,10.15
2023-02-22T02:52:13.307Z,9.77
2023-02-22T02:54:41.047Z,10.07
2023-02-22T02:57:09.421Z,10.30
2023-02-22T02:59:37.937Z,10.55
2023-02-22T03:02:35.284Z,9.95
2023-02-22T03:05:20.663Z,11.13
2023-02-22T03:07:47.763Z,11.55
2023-02-22T03:10:39.319Z,11.07
2023-02-22T03:13:24.556Z,10.80
2023-02-22T03:15:55.296Z,10.43
2023-02-22T03:18:30.027Z,10.68
2023-02-22T03:21:00.803Z,11.50
2023-02-22T03:23:33.199Z,11.15
2023-02-22T03:26:12.090Z,11.00
2023-02-22T03:31:17.867Z,10.82
2023-02-22T03:33:51.528Z,11.85
2023-02-22T03:36:27.366Z,10.85
2023-02-22T03:38:56.788Z,11.40
2023-02-22T03:41:25.232Z,10.93
2023-02-22T03:43:59.558Z,12.52
2023-02-22T03:46:29.313Z,12.05
2023-02-22T03:49:00.705Z,12.18
2023-02-22T03:51:32.728Z,12.48
2023-02-22T03:54:01.672Z,9.93
2023-02-22T03:56:47.351Z,11.48
2023-02-22T03:59:15.027Z,11.90
2023-02-22T04:01:42.307Z,11.70
2023-02-22T04:04:10.077Z,11.35
2023-02-22T04:06:38.726Z,11.70
2023-02-22T04:09:08.544Z,10.85
2023-02-22T04:11:35.668Z,11.15
2023-02-22T04:14:02.891Z,12.65
2023-02-22T04:16:30.120Z,12.52
2023-02-22T04:18:57.376Z,11.98
2023-02-22T04:21:24.535Z,11.55
2023-02-22T04:23:52.009Z,13.15
2023-02-22T04:26:19.221Z,11.82
2023-02-22T04:28:51.751Z,12.90
2023-02-22T04:31:22.960Z,13.00
2023-02-22T04:33:51.377Z,12.57
2023-02-22T04:36:24.080Z,12.88
2023-02-22T04:38:52.301Z,12.50
2023-02-22T04:41:21.373Z,12.48
2023-02-22T04:43:51.234Z,11.82
2023-02-22T04:46:21.746Z,13.35
2023-02-22T04:48:48.998Z,13.73
2023-02-22T04:51:17.794Z,11.80
2023-02-22T04:53:54.943Z,12.75
2023-02-22T04:56:22.067Z,13.57
2023-02-22T04:58:49.692Z,11.73
2023-02-22T05:01:17.175Z,12.57
2023-02-22T05:03:46.865Z,11.73
2023-02-22T05:06:14.003Z,12.90
2023-02-22T05:08:41.070Z,12.57
2023-02-22T05:11:08.195Z,12.88
2023-02-22T05:13:35.296Z,12.43
2023-02-22T05:16:03.810Z,12.90
2023-02-22T05:18:30.876Z,12.43
2023-02-22T05:20:57.951Z,11.85
2023-02-22T05:23:24.987Z,11.95
2023-02-22T05:25:52.084Z,12.90
2023-02-22T05:28:19.214Z,12.75
2023-02-22T05:30:46.889Z,13.57
2023-02-22T05:33:14.065Z,13.25
2023-02-22T05:35:41.222Z,12.13
2023-02-22T05:38:08.368Z,13.73
2023-02-22T05:40:35.510Z,13.23
2023-02-22T05:43:02.895Z,12.25
2023-02-22T05:45:30.552Z,13.80
2023-02-22T05:47:57.683Z,12.75
2023-02-22T05:50:25.006Z,12.90
2023-02-22T05:52:52.211Z,12.48
2023-02-22T05:55:20.634Z,13.27
2023-02-22T05:57:47.770Z,15.35
2023-02-22T06:00:17.276Z,12.90
2023-02-22T06:02:44.431Z,13.13
2023-02-22T06:05:11.679Z,13.73
2023-02-22T06:07:38.797Z,14.55
2023-02-22T06:10:06.105Z,13.10
2023-02-22T06:12:33.214Z,14.50
2023-02-22T06:15:00.342Z,14.57
2023-02-22T06:17:27.495Z,13.15
2023-02-22T06:19:54.646Z,14.77
2023-02-22T06:22:21.776Z,16.10
2023-02-22T06:24:48.839Z,14.98
2023-02-22T06:27:15.950Z,15.68
2023-02-22T06:29:46.639Z,14.95
2023-02-22T06:32:14.268Z,15.30
2023-02-22T06:34:41.468Z,13.93
2023-02-22T06:37:08.797Z,16.30
2023-02-22T06:39:35.925Z,15.32
2023-02-22T06:42:03.034Z,15.35
2023-02-22T06:44:30.148Z,14.95
2023-02-22T06:46:59.236Z,14.82
2023-02-22T06:49:27.278Z,13.43
2023-02-22T06:51:54.859Z,15.13
2023-02-22T06:54:22.722Z,15.40
2023-02-22T06:56:50.101Z,15.43
2023-02-22T06:59:17.532Z,15.70
2023-02-22T07:01:44.753Z,14.95
2023-02-22T07:04:11.896Z,14.88
2023-02-22T07:06:39.019Z,13.88
2023-02-22T07:09:06.086Z,12.90
2023-02-22T07:11:33.272Z,14.23
2023-02-22T07:14:00.460Z,14.73
2023-02-22T07:16:27.856Z,13.93
2023-02-22T07:18:55.075Z,13.48
2023-02-22T07:21:22.206Z,15.68
2023-02-22T07:23:53.414Z,16.25
2023-02-22T07:26:21.205Z,15.93
2023-02-22T07:28:48.724Z,15.90
2023-02-22T07:31:16.138Z,16.20
2023-02-22T07:33:43.449Z,15.27
2023-02-22T07:36:10.666Z,14.60
2023-02-22T07:38:37.797Z,16.17
2023-02-22T07:41:04.947Z,13.23
2023-02-22T07:43:32.119Z,13.27
2023-02-22T07:46:00.370Z,14.90
2023-02-22T07:48:28.783Z,14.05
2023-02-22T07:50:56.055Z,14.60
2023-02-22T07:53:26.698Z,14.50
2023-02-22T07:55:55.284Z,15.30
2023-02-22T07:58:24.267Z,15.23
2023-02-22T08:00:51.559Z,15.57
2023-02-22T08:03:19.731Z,16.48
2023-02-22T08:05:47.996Z,15.00
2023-02-22T08:08:17.743Z,15.70
2023-02-22T08:10:46.617Z,15.93
2023-02-22T08:13:13.773Z,14.68
2023-02-22T08:15:41.771Z,14.40
2023-02-22T08:18:10.148Z,16.02
2023-02-22T08:20:38.288Z,13.80
2023-02-22T08:23:06.549Z,13.90
2023-02-22T08:25:33.765Z,13.48
2023-02-22T08:28:02.260Z,15.25
2023-02-22T08:30:31.041Z,15.75
2023-02-22T08:32:58.618Z,15.55
2023-02-22T08:35:27.486Z,15.70
2023-02-22T08:37:57.157Z,13.50
2023-02-22T08:40:24.918Z,13.75
2023-02-22T08:42:52.290Z,12.93
2023-02-22T08:45:19.818Z,13.63
2023-02-22T08:47:47.367Z,12.90
2023-02-22T08:50:25.024Z,13.13
2023-02-22T08:52:52.728Z,12.35
2023-02-22T08:55:21.316Z,12.55
2023-02-22T08:57:48.388Z,13.02
2023-02-22T09:00:15.865Z,11.27
2023-02-22T09:02:42.955Z,11.80
2023-02-22T09:05:10.412Z,11.10
2023-02-22T09:07:37.560Z,11.50
2023-02-22T09:10:04.808Z,11.75
2023-02-22T09:12:31.964Z,10.43
2023-02-22T09:14:59.068Z,11.13
2023-02-22T09:17:26.208Z,10.48
2023-02-22T09:19:53.313Z,10.90
2023-02-22T09:22:20.385Z,11.25
2023-02-22T09:24:47.514Z,12.52
2023-02-22T09:27:14.866Z,11.45
2023-02-22T09:29:42.198Z,12.10
2023-02-22T09:32:09.446Z,11.18
2023-02-22T09:34:36.703Z,11.70
2023-02-22T09:37:08.585Z,11.55
2023-02-22T09:39:37.455Z,12.15
2023-02-22T09:42:10.847Z,12.05
2023-02-22T09:44:48.070Z,12.02
2023-02-22T09:47:18.112Z,12.02
2023-02-22T09:49:53.386Z,11.70
2023-02-22T09:52:36.184Z,11.80
2023-02-22T09:55:08.294Z,11.20
2023-02-22T09:57:42.974Z,12.38
2023-02-22T10:00:13.545Z,12.45
2023-02-22T10:02:48.866Z,12.13
2023-02-22T10:05:20.311Z,12.07
2023-02-22T10:07:52.174Z,12.20
2023-02-22T10:10:20.018Z,11.18
2023-02-22T10:12:47.204Z,11.35
2023-02-22T10:15:26.854Z,11.10
2023-02-22T10:18:30.916Z,11.05
2023-02-22T10:21:02.605Z,12.48
2023-02-22T10:23:46.799Z,11.77
2023-02-22T10:26:24.929Z,11.32
2023-02-22T10:29:09.931Z,12.32
2023-02-22T10:31:39.317Z,11.77
2023-02-22T10:34:12.459Z,12.32
2023-02-22T10:36:39.556Z,11.38
2023-02-22T10:39:27.044Z,11.63
2023-02-22T10:41:57.040Z,11.52
2023-02-22T10:44:24.931Z,10.70
2023-02-22T10:46:53.289Z,11.80
2023-02-22T10:49:22.409Z,11.98
2023-02-22T10:52:01.286Z,10.90
2023-02-22T10:54:34.548Z,11.43
2023-02-22T10:57:03.725Z,11.32
2023-02-22T10:59:35.317Z,10.57
2023-02-22T11:02:17.013Z,11.00
2023-02-22T11:04:49.662Z,11.48
2023-02-22T11:07:19.796Z,11.98
2023-02-22T11:09:50.184Z,11.88
2023-02-22T11:12:18.972Z,11.65
2023-02-22T11:14:46.121Z,11.25
2023-02-22T11:17:17.746Z,12.07
2023-02-22T11:19:48.963Z,11.32
2023-02-22T11:22:42.553Z,11.85
2023-02-22T11:25:09.867Z,10.40
2023-02-22T11:27:41.465Z,11.45
2023-02-22T11:30:11.641Z,11.27
2023-02-22T11:32:44.698Z,11.27
2023-02-22T11:35:20.544Z,11.57
2023-02-22T11:37:47.976Z,11.05
2023-02-22T11:40:22.091Z,10.85
2023-02-22T11:42:50.153Z,10.35
2023-02-22T11:45:23.638Z,11.52
2023-02-22T11:47:52.477Z,11.65
2023-02-22T11:50:27.757Z,10.07
2023-02-22T11:53:02.118Z,10.57
2023-02-22T11:55:42.866Z,10.25
2023-02-22T11:58:24.255Z,10.60
2023-02-22T12:00:57.954Z,10.57
2023-02-22T12:03:43.810Z,11.60
2023-02-22T12:06:40.366Z,10.80
2023-02-22T12:09:07.421Z,11.50
2023-02-22T12:11:47.721Z,11.80
2023-02-22T12:14:14.833Z,11.20
2023-02-22T12:17:02.002Z,10.70
2023-02-22T12:19:33.477Z,12.07
2023-02-22T12:22:02.840Z,11.25
2023-02-22T12:24:44.470Z,10.88
2023-02-22T12:27:18.252Z,11.98
2023-02-22T12:29:53.352Z,9.95
2023-02-22T12:32:30.600Z,11.82
2023-02-22T12:35:05.597Z,10.88
2023-02-22T12:37:44.868Z,11.10
2023-02-22T12:40:24.960Z,11.00
2023-02-22T12:43:27.042Z,11.40
2023-02-22T12:46:00.260Z,11.05
2023-02-22T12:48:33.500Z,10.93
2023-02-22T12:51:04.436Z,10.82
2023-02-22T12:53:40.643Z,10.77
2023-02-22T12:56:17.012Z,10.93
2023-02-22T12:58:50.019Z,12.00
2023-02-22T13:03:45.391Z,10.60
2023-02-22T13:06:25.297Z,11.02
2023-02-22T13:09:07.871Z,11.77
2023-02-22T13:11:53.469Z,10.95
2023-02-22T13:14:36.453Z,11.32
2023-02-22T13:17:13.430Z,12.07
2023-02-22T13:19:46.100Z,11.07
2023-02-22T13:22:36.559Z,11.75
2023-02-22T13:25:06.839Z,11.35
2023-02-22T13:27:38.011Z,11.93
2023-02-22T13:30:06.655Z,10.73
2023-02-22T13:32:43.646Z,11.70
2023-02-22T13:35:10.759Z,11.60
2023-02-22T13:37:40.998Z,11.52
2023-02-22T13:40:08.117Z,11.52
2023-02-22T13:43:16.318Z,10.63
2023-02-22T13:45:55.300Z,11.15
2023-02-22T13:48:31.985Z,11.75
2023-02-22T13:51:06.599Z,12.10
2023-02-22T13:53:39.949Z,11.13
2023-02-22T13:56:07.270Z,11.73
2023-02-22T13:58:47.220Z,10.77
2023-02-22T14:01:34.274Z,11.02
2023-02-22T14:04:33.123Z,12.35
2023-02-22T14:07:01.609Z,11.55
2023-02-22T14:09:48.181Z,10.45
2023-02-22T14:12:30.310Z,10.85
2023-02-22T14:15:18.720Z,12.32
2023-02-22T14:18:01.018Z,11.02
2023-02-22T14:20:32.193Z,11.10
2023-02-22T14:23:19.823Z,11.10
2023-02-22T14:25:47.190Z,11.48
2023-02-22T14:28:35.342Z,10.77
2023-02-22T14:31:25.746Z,10.35
2023-02-22T14:34:11.043Z,11.15
2023-02-22T14:36:56.292Z,10.85
2023-02-22T14:39:23.389Z,10.98
2023-02-22T14:41:56.782Z,11.05
2023-02-22T14:44:26.642Z,11.20
2023-02-22T14:46:56.366Z,11.80
2023-02-22T14:49:25.694Z,11.10
2023-02-22T14:51:56.198Z,10.77
2023-02-22T14:54:26.551Z,11.80
2023-02-22T14:57:00.528Z,10.52
2023-02-22T14:59:28.274Z,10.27
2023-02-22T15:02:12.432Z,10.43
2023-02-22T15:04:43.814Z,11.50
2023-02-22T15:07:22.412Z,10.70
2023-02-22T15:09:49.971Z,11.00
2023-02-22T15:12:24.150Z,10.52
2023-02-22T15:14:51.662Z,10.43
2023-02-22T15:17:22.212Z,10.25
2023-02-22T15:19:49.592Z,11.05
2023-02-22T15:22:36.433Z,10.45
2023-02-22T15:25:05.905Z,10.48
2023-02-22T15:27:36.854Z,10.55
2023-02-22T15:30:06.434Z,10.15
2023-02-22T15:32:57.200Z,10.43
2023-02-22T15:35:30.736Z,10.25
2023-02-22T15:38:03.998Z,10.38
2023-02-22T15:40:33.051Z,10.68
2023-02-22T15:43:08.809Z,11.55
2023-02-22T15:45:42.638Z,10.82
2023-02-22T15:48:11.021Z,11.90
2023-02-22T15:50:38.526Z,10.77
2023-02-22T15:53:05.648Z,11.75
2023-02-22T15:55:37.294Z,11.65
2023-02-22T15:58:23.592Z,10.82
2023-02-22T16:00:59.836Z,10.68
2023-02-22T16:03:33.809Z,11.00
2023-02-22T16:06:01.549Z,11.25
2023-02-22T16:08:49.161Z,11.73
2023-02-22T16:11:29.897Z,12.43
2023-02-22T16:14:01.935Z,11.85
2023-02-22T16:16:30.527Z,12.45
2023-02-22T16:19:26.206Z,11.38
2023-02-22T16:21:54.888Z,11.95
2023-02-22T16:24:29.346Z,12.05
2023-02-22T16:27:04.689Z,12.50
2023-02-22T16:29:31.982Z,12.77
2023-02-22T16:31:59.328Z,12.57
2023-02-22T16:34:26.545Z,13.35
2023-02-22T16:36:55.457Z,13.25
2023-02-22T16:39:27.352Z,12.23
2023-02-22T16:41:56.086Z,14.10
2023-02-22T16:44:25.096Z,12.85
2023-02-22T16:46:52.764Z,13.77
2023-02-22T16:49:20.451Z,13.20
2023-02-22T16:51:55.254Z,14.27
2023-02-22T16:54:41.846Z,12.77
2023-02-22T16:57:15.396Z,12.95
2023-02-22T16:59:42.506Z,14.05
2023-02-22T17:02:16.040Z,15.00
2023-02-22T17:04:49.367Z,14.48
2023-02-22T17:07:17.638Z,14.63
2023-02-22T17:09:44.891Z,15.32
2023-02-22T17:12:11.958Z,15.45
2023-02-22T17:14:40.919Z,14.98
2023-02-22T17:17:09.219Z,15.80
2023-02-22T17:19:37.638Z,15.35
2023-02-22T17:22:06.153Z,15.95
2023-02-22T17:24:33.964Z,16.35
2023-02-22T17:27:02.149Z,16.88
2023-02-22T17:29:29.843Z,17.30
2023-02-22T17:31:57.091Z,18.98
2023-02-22T17:34:24.441Z,19.30
2023-02-22T17:36:51.603Z,19.33
2023-02-22T17:39:18.790Z,19.75
2023-02-22T17:41:45.975Z,21.90
2023-02-22T17:44:13.451Z,20.55
2023-02-22T17:46:43.454Z,20.60
2023-02-22T17:49:13.556Z,20.98
2023-02-22T17:51:41.153Z,22.23
2023-02-22T17:54:09.477Z,22.67
2023-02-22T17:56:37.497Z,21.85
2023-02-22T17:59:04.891Z,23.35
2023-02-22T18:01:33.695Z,20.95
2023-02-22T18:04:01.482Z,22.75
2023-02-22T18:06:29.984Z,23.33
2023-02-22T18:08:57.828Z,22.42
2023-02-22T18:11:26.424Z,22.48
2023-02-22T18:13:57.598Z,21.92
2023-02-22T18:16:25.859Z,21.52
2023-02-22T18:18:53.685Z,22.60
2023-02-22T18:21:20.836Z,23.35
2023-02-22T18:23:48.133Z,23.30
2023-02-22T18:26:19.860Z,23.92
2023-02-22T18:28:50.647Z,23.25
2023-02-22T18:31:19.317Z,23.95
2023-02-22T18:33:49.804Z,23.60
2023-02-22T18:36:22.535Z,23.52
2023-02-22T18:38:50.642Z,26.10
2023-02-22T18:41:18.615Z,24.50
2023-02-22T18:43:50.726Z,26.70
2023-02-22T18:46:19.295Z,26.27
2023-02-22T18:48:47.845Z,26.30
2023-02-22T18:51:17.008Z,27.80
2023-02-22T18:53:47.146Z,27.13
2023-02-22T18:56:15.860Z,27.60
2023-02-22T18:58:43.226Z,27.40
2023-02-22T19:01:15.621Z,27.25
2023-02-22T19:03:42.877Z,28.13
2023-02-22T19:06:10.042Z,28.20
2023-02-22T19:08:42.098Z,27.98
2023-02-22T19:11:11.017Z,27.33
2023-02-22T19:13:38.345Z,29.23
2023-02-22T19:16:07.425Z,27.48
2023-02-22T19:18:34.896Z,28.65
2023-02-22T19:21:03.012Z,27.02
2023-02-22T19:23:34.439Z,29.83
2023-02-22T19:26:03.102Z,29.80
2023-02-22T19:28:33.940Z,30.42
2023-02-22T19:31:14.317Z,29.92
2023-02-22T19:33:41.664Z,28.90
2023-02-22T19:36:09.731Z,27.88
2023-02-22T19:38:36.864Z,28.60
2023-02-22T19:41:10.804Z,27.23
2023-02-22T19:43:37.950Z,29.00
2023-02-22T19:46:05.988Z,29.90
2023-02-22T19:48:33.091Z,28.35
2023-02-22T19:51:06.222Z,31.48
2023-02-22T19:56:00.753Z,29.55
2023-02-22T19:58:27.980Z,29.83
2023-02-22T20:00:55.186Z,28.75
2023-02-22T20:03:25.734Z,28.42
2023-02-22T20:05:52.934Z,28.00
2023-02-22T20:08:20.624Z,27.92
2023-02-22T20:10:47.726Z,27.27
2023-02-22T20:13:16.932Z,25.05
2023-02-22T20:15:45.091Z,26.60
2023-02-22T20:18:12.173Z,25.75
2023-02-22T20:20:40.214Z,25.60
2023-02-22T20:23:09.378Z,26.10
2023-02-22T20:25:37.763Z,24.48
2023-02-22T20:28:06.912Z,24.20
2023-02-22T20:30:37.251Z,24.10
2023-02-22T20:33:05.097Z,25.15
2023-02-22T20:35:33.919Z,24.10
2023-02-22T20:38:01.385Z,24.17
2023-02-22T20:40:28.423Z,24.63
2023-02-22T20:42:56.204Z,26.27
2023-02-22T20:45:23.312Z,24.90
2023-02-22T20:47:50.458Z,26.42
2023-02-22T20:50:17.670Z,25.13
2023-02-22T20:52:45.160Z,24.15
2023-02-22T20:55:12.284Z,24.30
2023-02-22T20:57:39.398Z,23.85
2023-02-22T21:00:10.453Z,25.35
2023-02-22T21:02:41.046Z,24.63
2023-02-22T21:05:08.167Z,24.27
2023-02-22T21:07:35.369Z,24.80
2023-02-22T21:10:02.508Z,23.58
2023-02-22T21:12:29.637Z,23.70
2023-02-22T21:14:56.770Z,25.10
2023-02-22T21:17:28.751Z,23.55
2023-02-22T21:19:56.597Z,22.40
2023-02-22T21:22:25.156Z,23.05
2023-02-22T21:24:53.346Z,22.63
2023-02-22T21:27:20.464Z,21.98
2023-02-22T21:29:47.645Z,21.95
2023-02-22T21:32:14.983Z,20.27
2023-02-22T21:34:42.255Z,22.98
2023-02-22T21:37:09.414Z,20.75
2023-02-22T21:39:36.582Z,20.15
2023-02-22T21:42:06.978Z,21.23
2023-02-22T21:44:34.181Z,21.35
2023-02-22T21:47:01.330Z,20.42
2023-02-22T21:49:28.827Z,19.60
2023-02-22T21:51:56.398Z,20.45
2023-02-22T21:54:23.521Z,20.55
2023-02-22T21:56:50.721Z,19.42
2023-02-22T21:59:19.941Z,19.30
2023-02-22T22:01:49.889Z,20.20
2023-02-22T22:04:21.188Z,20.25
2023-02-22T22:06:50.756Z,20.38
2023-02-22T22:09:18.257Z,19.95
2023-02-22T22:11:46.824Z,20.45
2023-02-22T22:14:14.037Z,20.45
2023-02-22T22:16:41.151Z,20.15
2023-02-22T22:19:08.328Z,19.58
2023-02-22T22:21:35.451Z,19.83
2023-02-22T22:24:04.841Z,19.23
2023-02-22T22:26:33.814Z,18.17
2023-02-22T22:29:04.023Z,19.65
2023-02-22T22:31:31.821Z,19.42
2023-02-22T22:33:59.212Z,20.20
2023-02-22T22:36:27.350Z,20.33
2023-02-22T22:38:57.306Z,20.05
2023-02-22T22:41:24.867Z,18.88
2023-02-22T22:43:53.944Z,20.40
2023-02-22T22:46:21.530Z,18.55
2023-02-22T22:48:48.697Z,18.85
2023-02-22T22:51:18.497Z,19.52
2023-02-22T22:53:46.574Z,17.85
2023-02-22T22:56:16.270Z,18.58
2023-02-22T22:58:44.631Z,18.30
2023-02-22T23:01:18.041Z,18.23
2023-02-22T23:03:55.021Z,18.75
2023-02-22T23:06:26.504Z,18.70
2023-02-22T23:08:59.909Z,17.25
2023-02-22T23:11:28.623Z,18.33
2023-02-22T23:13:56.394Z,18.02
2023-02-22T23:16:24.737Z,18.00
2023-02-22T23:18:51.963Z,19.00
2023-02-22T23:21:24.134Z,18.35
2023-02-22T23:23:55.146Z,19.38
2023-02-22T23:26:22.332Z,17.83
2023-02-22T23:28:49.897Z,19.38
2023-02-22T23:31:18.083Z,17.88
2023-02-22T23:33:48.344Z,18.92
2023-02-22T23:36:16.481Z,19.95
2023-02-22T23:38:44.097Z,18.13
2023-02-22T23:41:12.679Z,19.45
2023-02-22T23:43:40.506Z,18.25
2023-02-22T23:46:12.220Z,20.13
2023-02-22T23:48:40.266Z,19.52
2023-02-22T23:51:09.142Z,18.75
2023-02-22T23:53:38.074Z,19.10
2023-02-22T23:56:09.874Z,17.58
2023-02-22T23:58:38.227Z,19.85
